CPA339 ZGSZ-VHHH
Flight info
| Callsign | CPA339 |
|---|---|
| Flight time | 0h 12m |
| Altitude | 9800 |
| Route | LUKBU2 LUKBU DCT GOONAT I25C |
| Aircraft | A21N/M-SDE2E3FGHIJ5LORVWXY/LB1D1 |
Departure
| Time | 2026-04-19 04:16 |
|---|---|
| Airport | Shenzhen Bao'an International Airport (ZGSZ) |
Arrival
| Time | 2026-04-19 04:28 |
|---|---|
| Airport | Hong Kong International Airport (VHHH) |
| Time | Latitude | Longitude | Altitude | Speed | Heading |
|---|---|---|---|---|---|
| 2026-04-19 04:05 | 22.63449 | 113.80656 | 22 ft | 0 kts | 154° |
| 2026-04-19 04:07 | 22.63452 | 113.80654 | 21 ft | 1 kts | 179° |
| 2026-04-19 04:07 | 22.63466 | 113.80657 | 21 ft | 2 kts | 193° |
| 2026-04-19 04:07 | 22.63481 | 113.80660 | 21 ft | 2 kts | 184° |
| 2026-04-19 04:08 | 22.63496 | 113.80661 | 21 ft | 2 kts | 188° |
| 2026-04-19 04:08 | 22.63509 | 113.80663 | 21 ft | 0 kts | 187° |
| 2026-04-19 04:08 | 22.63515 | 113.80664 | 21 ft | 1 kts | 150° |
| 2026-04-19 04:08 | 22.63519 | 113.80658 | 21 ft | 0 kts | 94° |
| 2026-04-19 04:09 | 22.63518 | 113.80653 | 21 ft | 0 kts | 56° |
| 2026-04-19 04:09 | 22.63515 | 113.80647 | 21 ft | 0 kts | 63° |
| 2026-04-19 04:11 | 22.63516 | 113.80650 | 21 ft | 0 kts | 65° |
| 2026-04-19 04:11 | 22.63523 | 113.80671 | 21 ft | 4 kts | 70° |
| 2026-04-19 04:11 | 22.63541 | 113.80730 | 21 ft | 8 kts | 68° |
| 2026-04-19 04:12 | 22.63573 | 113.80784 | 21 ft | 8 kts | 53° |
| 2026-04-19 04:12 | 22.63605 | 113.80839 | 21 ft | 8 kts | 64° |
| 2026-04-19 04:12 | 22.63629 | 113.80901 | 21 ft | 9 kts | 69° |
| 2026-04-19 04:12 | 22.63654 | 113.80968 | 21 ft | 9 kts | 64° |
| 2026-04-19 04:13 | 22.63688 | 113.81033 | 21 ft | 10 kts | 47° |
| 2026-04-19 04:13 | 22.63752 | 113.81055 | 21 ft | 10 kts | 6° |
| 2026-04-19 04:13 | 22.63825 | 113.81057 | 21 ft | 10 kts | 357° |
| 2026-04-19 04:13 | 22.63893 | 113.81056 | 21 ft | 2 kts | 28° |
| 2026-04-19 04:14 | 22.63896 | 113.81080 | 21 ft | 3 kts | 123° |
| 2026-04-19 04:14 | 22.63878 | 113.81092 | 21 ft | 0 kts | 154° |
| 2026-04-19 04:15 | 22.63681 | 113.81198 | 21 ft | 65 kts | 154° |
| 2026-04-19 04:15 | 22.63098 | 113.81520 | 22 ft | 122 kts | 155° |
| 2026-04-19 04:15 | 22.62213 | 113.81992 | 86 ft | 160 kts | 154° |
| 2026-04-19 04:15 | 22.61194 | 113.82504 | 492 ft | 167 kts | 159° |
| 2026-04-19 04:16 | 22.60058 | 113.82832 | 999 ft | 171 kts | 168° |
| 2026-04-19 04:16 | 22.58865 | 113.83134 | 1449 ft | 182 kts | 167° |
| 2026-04-19 04:16 | 22.57561 | 113.83324 | 1776 ft | 200 kts | 180° |
| 2026-04-19 04:16 | 22.56055 | 113.83247 | 1954 ft | 226 kts | 181° |
| 2026-04-19 04:17 | 22.54470 | 113.83353 | 2377 ft | 239 kts | 176° |
| 2026-04-19 04:17 | 22.52756 | 113.83450 | 2834 ft | 252 kts | 178° |
| 2026-04-19 04:17 | 22.50950 | 113.83513 | 3399 ft | 261 kts | 178° |
| 2026-04-19 04:17 | 22.49166 | 113.83896 | 3989 ft | 267 kts | 152° |
| 2026-04-19 04:18 | 22.47794 | 113.85262 | 4556 ft | 273 kts | 120° |
| 2026-04-19 04:18 | 22.47251 | 113.87243 | 4974 ft | 285 kts | 90° |
| 2026-04-19 04:18 | 22.47582 | 113.89449 | 5092 ft | 310 kts | 77° |
| 2026-04-19 04:18 | 22.48072 | 113.91795 | 5079 ft | 320 kts | 78° |
| 2026-04-19 04:19 | 22.48531 | 113.94147 | 5073 ft | 321 kts | 78° |
| 2026-04-19 04:19 | 22.48979 | 113.96535 | 5071 ft | 322 kts | 79° |
| 2026-04-19 04:19 | 22.52867 | 114.17908 | 5074 ft | 322 kts | 79° |
| 2026-04-19 04:19 | 22.53275 | 114.20270 | 5062 ft | 309 kts | 79° |
| 2026-04-19 04:20 | 22.53599 | 114.22489 | 5049 ft | 293 kts | 88° |
| 2026-04-19 04:20 | 22.53255 | 114.24591 | 5045 ft | 275 kts | 114° |
| 2026-04-19 04:20 | 22.52207 | 114.26283 | 5055 ft | 270 kts | 136° |
| 2026-04-19 04:20 | 22.50678 | 114.27420 | 4771 ft | 266 kts | 156° |
| 2026-04-19 04:21 | 22.48938 | 114.28058 | 4525 ft | 259 kts | 173° |
| 2026-04-19 04:21 | 22.47176 | 114.27853 | 4303 ft | 250 kts | 203° |
| 2026-04-19 04:21 | 22.45752 | 114.26832 | 4108 ft | 242 kts | 231° |
| 2026-04-19 04:21 | 22.44853 | 114.25248 | 4074 ft | 263 kts | 240° |
| 2026-04-19 04:22 | 22.43636 | 114.23657 | 3896 ft | 273 kts | 216° |
| 2026-04-19 04:22 | 22.41997 | 114.22511 | 3739 ft | 285 kts | 216° |
| 2026-04-19 04:22 | 22.40761 | 114.20955 | 3530 ft | 266 kts | 247° |
| 2026-04-19 04:22 | 22.40206 | 114.19112 | 3381 ft | 247 kts | 255° |
| 2026-04-19 04:23 | 22.39792 | 114.17401 | 3215 ft | 232 kts | 255° |
| 2026-04-19 04:23 | 22.39373 | 114.15812 | 3034 ft | 216 kts | 253° |
| 2026-04-19 04:23 | 22.38916 | 114.14238 | 2889 ft | 218 kts | 252° |
| 2026-04-19 04:23 | 22.38457 | 114.12693 | 2783 ft | 217 kts | 252° |
| 2026-04-19 04:24 | 22.38002 | 114.11204 | 2951 ft | 218 kts | 251° |
| 2026-04-19 04:24 | 22.37528 | 114.09699 | 3081 ft | 210 kts | 251° |
| 2026-04-19 04:24 | 22.37059 | 114.08244 | 2937 ft | 194 kts | 251° |
| 2026-04-19 04:24 | 22.36649 | 114.06982 | 2759 ft | 188 kts | 251° |
| 2026-04-19 04:25 | 22.36199 | 114.05598 | 2519 ft | 182 kts | 251° |
| 2026-04-19 04:25 | 22.35791 | 114.04344 | 2267 ft | 179 kts | 251° |
| 2026-04-19 04:25 | 22.35392 | 114.03114 | 2006 ft | 165 kts | 251° |
| 2026-04-19 04:25 | 22.35028 | 114.02003 | 1759 ft | 152 kts | 251° |
| 2026-04-19 04:26 | 22.34661 | 114.00858 | 1615 ft | 170 kts | 251° |
| 2026-04-19 04:26 | 22.34293 | 113.99712 | 1450 ft | 188 kts | 251° |
| 2026-04-19 04:26 | 22.33871 | 113.98408 | 1171 ft | 181 kts | 251° |
| 2026-04-19 04:26 | 22.33454 | 113.97120 | 880 ft | 165 kts | 251° |
| 2026-04-19 04:27 | 22.33095 | 113.96006 | 641 ft | 148 kts | 251° |
| 2026-04-19 04:27 | 22.32759 | 113.94965 | 480 ft | 148 kts | 251° |
| 2026-04-19 04:27 | 22.32409 | 113.93876 | 267 ft | 155 kts | 252° |
| 2026-04-19 04:27 | 22.32064 | 113.92801 | 49 ft | 152 kts | 250° |
| 2026-04-19 04:28 | 22.31753 | 113.91849 | 35 ft | 110 kts | 248° |
| 2026-04-19 04:28 | 22.31570 | 113.91286 | 35 ft | 42 kts | 245° |
| 2026-04-19 04:28 | 22.31417 | 113.91058 | 35 ft | 29 kts | 219° |
| 2026-04-19 04:28 | 22.31331 | 113.91058 | 35 ft | 14 kts | 108° |
| 2026-04-19 04:29 | 22.31346 | 113.91155 | 35 ft | 14 kts | 72° |
| 2026-04-19 04:29 | 22.31382 | 113.91276 | 35 ft | 19 kts | 72° |
| 2026-04-19 04:29 | 22.31436 | 113.91440 | 35 ft | 34 kts | 70° |
| 2026-04-19 04:29 | 22.31530 | 113.91723 | 35 ft | 39 kts | 73° |
| 2026-04-19 04:30 | 22.31611 | 113.91981 | 35 ft | 32 kts | 69° |
| 2026-04-19 04:30 | 22.31683 | 113.92200 | 35 ft | 31 kts | 72° |
| 2026-04-19 04:30 | 22.31760 | 113.92438 | 35 ft | 32 kts | 71° |
| 2026-04-19 04:30 | 22.31832 | 113.92663 | 35 ft | 30 kts | 70° |
| 2026-04-19 04:31 | 22.31861 | 113.92818 | 35 ft | 14 kts | 148° |
| 2026-04-19 04:31 | 22.31769 | 113.92855 | 35 ft | 13 kts | 160° |
| 2026-04-19 04:31 | 22.31680 | 113.92889 | 35 ft | 13 kts | 162° |
| 2026-04-19 04:31 | 22.31590 | 113.92921 | 35 ft | 13 kts | 161° |
| 2026-04-19 04:32 | 22.31555 | 113.92997 | 35 ft | 12 kts | 81° |
| 2026-04-19 04:32 | 22.31584 | 113.93039 | 35 ft | 3 kts | 352° |
| 2026-04-19 04:32 | 22.31631 | 113.93029 | 35 ft | 6 kts | 344° |